Jardim De Angicos, Brazil
Current Conditions -  °F | °C
As of 7:00 AM on Sunday 21 Dec 2014 (Local Time) from SBNT Reporting Station
Few Clouds Few Clouds  
Wind Chill: 27°   Ceiling: Unl
Heat Index: 29°   Visibility: 6mi
Dew Point: 22°   Wind: 9mph
Humidity: 74%   Direction: 110°ESE
Pressure: 29.94"   Gusts: NA
Location:  5.65°S, 35.98°W
Report Text: SBNT 211000Z 11008KT 9999 FEW020 27/22 Q1014
Loading
Personal Weather Stations






























Interactive Weather Map New forecast layout! Learn more

10-Day Weather Forecast

Advertisements
Track Severe Weather on mobile